Avon, Iowa
Current Conditions -  °F | °C
As of 11:54 AM on Wednesday 28 Jan 2015 (Local Time) from KDSM Reporting Station
Overcast Overcast  
Wind Chill: 33°   Ceiling: 26000
Heat Index: 41°   Visibility: 9mi
Dew Point: 32°   Wind: 15mph
Humidity: 70%   Direction: 160°SSE
Pressure: 29.88"   Gusts: NA
Location:  41.4707°N, 93.4797°W
Report Text: KDSM 281754Z 16013KT 9SM FEW020 FEW220 OVC260 05/00 A2988 RMK AO2 SLP125 T00500000 10050 21011 58034
Loading
Personal Weather Stations






























Interactive Weather Map New forecast layout! Learn more

10-Day Weather Forecast

Advertisements
Track Severe Weather on mobile